createdAt,value
2019-02-06T00:01:15.521Z,52.60
2019-02-06T00:03:41.755Z,49.03
2019-02-06T00:06:07.989Z,50.27
2019-02-06T00:08:34.075Z,45.67
2019-02-06T00:11:00.204Z,46.23
2019-02-06T00:13:26.729Z,51.30
2019-02-06T00:15:52.896Z,42.97
2019-02-06T00:18:19.014Z,48.27
2019-02-06T00:20:45.137Z,45.83
2019-02-06T00:23:11.260Z,47.97
2019-02-06T00:25:37.375Z,43.87
2019-02-06T00:28:04.079Z,45.37
2019-02-06T00:30:30.254Z,42.37
2019-02-06T00:32:56.345Z,40.83
2019-02-06T00:35:25.736Z,51.70
2019-02-06T00:37:50.782Z,53.23
2019-02-06T00:40:16.910Z,43.07
2019-02-06T00:42:43.035Z,47.67
2019-02-06T00:45:10.501Z,48.77
2019-02-06T00:47:36.596Z,46.63
2019-02-06T00:50:06.399Z,47.07
2019-02-06T00:52:32.936Z,47.60
2019-02-06T00:54:59.053Z,50.67
2019-02-06T00:57:25.245Z,46.57
2019-02-06T00:59:51.382Z,46.67
2019-02-06T01:02:17.825Z,50.67
2019-02-06T01:04:44.067Z,49.10
2019-02-06T01:07:10.163Z,52.13
2019-02-06T01:09:36.317Z,56.77
2019-02-06T01:12:02.402Z,56.73
2019-02-06T01:14:28.920Z,50.83
2019-02-06T01:16:55.046Z,50.73
2019-02-06T01:19:21.270Z,52.80
2019-02-06T01:21:47.356Z,57.43
2019-02-06T01:24:13.484Z,54.20
2019-02-06T01:26:39.567Z,57.03
2019-02-06T01:29:05.708Z,57.53
2019-02-06T01:31:32.697Z,59.63
2019-02-06T01:33:58.817Z,60.97
2019-02-06T01:36:25.242Z,55.73
2019-02-06T01:38:51.340Z,55.17
2019-02-06T01:41:17.594Z,69.67
2019-02-06T01:43:43.676Z,58.07
2019-02-06T01:46:09.919Z,63.80
2019-02-06T01:48:36.036Z,58.80
2019-02-06T01:51:02.134Z,62.67
2019-02-06T01:53:30.273Z,64.50
2019-02-06T01:55:56.810Z,69.33
2019-02-06T01:58:22.820Z,62.33
2019-02-06T02:00:48.924Z,70.87
2019-02-06T02:03:15.049Z,64.50
2019-02-06T02:05:41.254Z,79.07
2019-02-06T02:08:07.541Z,65.80
2019-02-06T02:10:33.657Z,69.50
2019-02-06T02:12:59.771Z,73.33
2019-02-06T02:15:25.906Z,65.97
2019-02-06T02:17:52.513Z,69.27
2019-02-06T02:20:23.136Z,65.63
2019-02-06T02:22:49.855Z,72.60
2019-02-06T02:25:16.144Z,66.40
2019-02-06T02:27:42.500Z,62.60
2019-02-06T02:30:12.231Z,58.70
2019-02-06T02:32:39.794Z,65.63
2019-02-06T02:35:06.784Z,54.03
2019-02-06T02:37:32.925Z,63.87
2019-02-06T02:39:58.906Z,63.47
2019-02-06T02:42:25.005Z,57.37
2019-02-06T02:44:51.037Z,56.73
2019-02-06T02:47:17.231Z,66.83
2019-02-06T02:49:43.417Z,70.37
2019-02-06T02:52:09.551Z,61.30
2019-02-06T02:54:35.978Z,58.83
2019-02-06T02:57:02.106Z,61.73
2019-02-06T02:59:28.232Z,64.63
2019-02-06T03:02:05.150Z,67.07
2019-02-06T03:04:31.633Z,67.13
2019-02-06T03:06:57.860Z,55.67
2019-02-06T03:09:23.950Z,54.33
2019-02-06T03:11:50.675Z,57.37
2019-02-06T03:14:16.771Z,60.30
2019-02-06T03:16:42.947Z,62.53
2019-02-06T03:19:09.096Z,49.93
2019-02-06T03:21:35.172Z,53.90
2019-02-06T03:24:01.297Z,56.60
2019-02-06T03:26:27.402Z,50.47
2019-02-06T03:28:53.583Z,55.43
2019-02-06T03:31:19.705Z,57.57
2019-02-06T03:33:46.219Z,50.93
2019-02-06T03:36:12.394Z,42.50
2019-02-06T03:38:38.479Z,62.90
2019-02-06T03:41:04.702Z,48.27
2019-02-06T03:43:30.784Z,45.00
2019-02-06T03:45:56.920Z,47.07
2019-02-06T03:48:23.048Z,48.43
2019-02-06T03:50:49.200Z,40.50
2019-02-06T03:53:15.379Z,41.10
2019-02-06T03:55:41.307Z,40.73
2019-02-06T03:58:07.433Z,42.83
2019-02-06T04:00:33.519Z,44.03
2019-02-06T04:02:59.639Z,42.87
2019-02-06T04:05:25.772Z,34.40
2019-02-06T04:07:51.878Z,37.77
2019-02-06T04:10:18.794Z,37.93
2019-02-06T04:12:44.926Z,41.13
2019-02-06T04:15:11.949Z,40.80
2019-02-06T04:17:38.348Z,36.83
2019-02-06T04:20:08.076Z,39.17
2019-02-06T04:22:34.170Z,42.20
2019-02-06T04:25:00.101Z,33.50
2019-02-06T04:27:26.275Z,40.37
2019-02-06T04:29:52.412Z,38.10
2019-02-06T04:32:18.541Z,37.13
2019-02-06T04:34:44.990Z,38.23
2019-02-06T04:37:11.099Z,40.50
2019-02-06T04:39:37.297Z,38.57
2019-02-06T04:42:03.428Z,37.57
2019-02-06T04:44:29.416Z,41.97
2019-02-06T04:46:55.549Z,41.87
2019-02-06T04:49:21.641Z,40.50
2019-02-06T04:51:47.657Z,36.00
2019-02-06T04:54:13.744Z,30.80
2019-02-06T04:56:39.771Z,36.93
2019-02-06T04:59:05.855Z,40.13
2019-02-06T05:01:32.071Z,40.67
2019-02-06T05:03:58.162Z,34.00
2019-02-06T05:06:24.304Z,39.53
2019-02-06T05:08:50.389Z,39.43
2019-02-06T05:11:16.513Z,40.87
2019-02-06T05:13:42.610Z,43.93
2019-02-06T05:16:09.138Z,40.70
2019-02-06T05:18:35.272Z,39.57
2019-02-06T05:21:01.492Z,47.97
2019-02-06T05:23:27.658Z,36.87
2019-02-06T05:25:53.741Z,46.57
2019-02-06T05:28:19.892Z,46.60
2019-02-06T05:30:46.025Z,43.93
2019-02-06T05:33:12.159Z,46.77
2019-02-06T05:35:38.254Z,43.27
2019-02-06T05:38:04.676Z,46.10
2019-02-06T05:40:30.766Z,42.07
2019-02-06T05:42:57.167Z,42.53
2019-02-06T05:45:23.303Z,42.80
2019-02-06T05:47:49.398Z,54.50
2019-02-06T05:50:17.024Z,41.30
2019-02-06T05:52:43.555Z,45.70
2019-02-06T05:55:10.468Z,44.03
2019-02-06T05:57:36.559Z,44.90
2019-02-06T06:00:06.781Z,45.30
2019-02-06T06:02:32.902Z,43.00
2019-02-06T06:04:59.031Z,46.63
2019-02-06T06:07:25.126Z,42.33
2019-02-06T06:09:51.283Z,44.07
2019-02-06T06:12:17.296Z,51.60
2019-02-06T06:14:43.390Z,53.37
2019-02-06T06:17:09.508Z,47.73
2019-02-06T06:19:35.997Z,49.60
2019-02-06T06:22:02.279Z,52.63
2019-02-06T06:24:28.430Z,46.57
2019-02-06T06:26:54.559Z,48.53
2019-02-06T06:29:20.570Z,58.00
2019-02-06T06:31:46.719Z,52.53
2019-02-06T06:34:12.811Z,60.53
2019-02-06T06:36:38.981Z,50.00
2019-02-06T06:39:05.890Z,49.50
2019-02-06T06:41:32.279Z,54.37
2019-02-06T06:43:58.398Z,53.10
2019-02-06T06:46:24.490Z,51.23
2019-02-06T06:48:50.624Z,62.10
2019-02-06T06:51:17.040Z,61.47
2019-02-06T06:53:43.143Z,52.80
2019-02-06T06:56:09.285Z,53.60
2019-02-06T06:58:35.424Z,55.73
2019-02-06T07:01:01.448Z,64.10
2019-02-06T07:03:27.838Z,65.80
2019-02-06T07:05:53.949Z,66.77
2019-02-06T07:08:20.071Z,66.43
2019-02-06T07:10:46.267Z,74.10
2019-02-06T07:13:12.371Z,68.27
2019-02-06T07:15:38.518Z,60.63
2019-02-06T07:18:04.719Z,64.53
2019-02-06T07:20:30.884Z,72.63
2019-02-06T07:22:57.328Z,68.80
2019-02-06T07:25:23.441Z,70.10
2019-02-06T07:27:49.532Z,65.93
2019-02-06T07:30:27.489Z,64.70
2019-02-06T07:32:53.592Z,67.90
2019-02-06T07:35:19.747Z,69.87
2019-02-06T07:37:45.863Z,69.47
2019-02-06T07:40:13.835Z,60.10
2019-02-06T07:42:39.953Z,64.33
2019-02-06T07:45:09.278Z,84.57
2019-02-06T07:47:35.419Z,66.60
2019-02-06T07:50:01.719Z,64.97
2019-02-06T07:52:27.980Z,71.37
2019-02-06T07:54:54.072Z,65.57
2019-02-06T07:57:20.177Z,67.63
2019-02-06T07:59:46.694Z,71.30
2019-02-06T08:02:12.819Z,66.83
2019-02-06T08:04:41.446Z,75.93
2019-02-06T08:07:06.916Z,73.77
2019-02-06T08:09:33.059Z,72.43
2019-02-06T08:11:59.151Z,75.53
2019-02-06T08:14:25.387Z,71.07
2019-02-06T08:16:51.472Z,67.47
2019-02-06T08:19:17.600Z,69.30
2019-02-06T08:21:44.113Z,72.30
2019-02-06T08:24:10.155Z,60.67
2019-02-06T08:26:36.306Z,63.10
2019-02-06T08:29:02.838Z,59.97
2019-02-06T08:31:28.980Z,64.70
2019-02-06T08:33:55.528Z,68.07
2019-02-06T08:36:21.676Z,61.77
2019-02-06T08:38:50.262Z,61.37
2019-02-06T08:41:16.057Z,67.13
2019-02-06T08:43:42.056Z,69.27
2019-02-06T08:46:08.179Z,66.10
2019-02-06T08:48:34.394Z,66.03
2019-02-06T08:51:01.221Z,74.17
2019-02-06T08:53:27.376Z,74.30
2019-02-06T08:55:53.513Z,76.10
2019-02-06T08:58:19.607Z,65.27
2019-02-06T09:00:45.767Z,69.97
2019-02-06T09:03:11.903Z,67.40
2019-02-06T09:05:38.168Z,65.20
2019-02-06T09:08:04.496Z,67.93
2019-02-06T09:10:30.818Z,63.10
2019-02-06T09:12:57.476Z,71.97
2019-02-06T09:15:23.572Z,74.03
2019-02-06T09:17:49.786Z,72.00
2019-02-06T09:20:18.612Z,69.83
2019-02-06T09:22:45.055Z,70.40
2019-02-06T09:25:16.566Z,57.33
2019-02-06T09:27:42.689Z,61.17
2019-02-06T09:30:12.417Z,70.73
2019-02-06T09:32:38.681Z,82.37
2019-02-06T09:35:05.692Z,63.10
2019-02-06T09:37:31.957Z,59.23
2019-02-06T09:39:58.492Z,58.97
2019-02-06T09:42:24.622Z,66.73
2019-02-06T09:44:50.735Z,66.87
2019-02-06T09:47:16.888Z,56.87
2019-02-06T09:49:43.039Z,52.13
2019-02-06T09:52:09.140Z,55.97
2019-02-06T09:54:35.299Z,63.07
2019-02-06T09:57:01.430Z,63.43
2019-02-06T09:59:27.527Z,62.83
2019-02-06T10:01:54.083Z,59.70
2019-02-06T10:04:20.199Z,49.63
2019-02-06T10:06:46.296Z,52.17
2019-02-06T10:09:22.517Z,51.60
2019-02-06T10:11:40.433Z,64.07
2019-02-06T10:14:06.554Z,48.90
2019-02-06T10:16:32.678Z,48.00
2019-02-06T10:18:58.936Z,50.20
2019-02-06T10:21:25.796Z,45.63
2019-02-06T10:23:52.050Z,48.50
2019-02-06T10:26:18.163Z,39.07
2019-02-06T10:28:44.299Z,47.27
2019-02-06T10:31:10.448Z,50.23
2019-02-06T10:33:36.547Z,41.47
2019-02-06T10:36:03.013Z,48.33
2019-02-06T10:38:29.197Z,35.17
2019-02-06T10:40:55.327Z,42.67
2019-02-06T10:43:31.632Z,43.70
2019-02-06T10:45:49.518Z,43.80
2019-02-06T10:48:15.755Z,36.30
2019-02-06T10:50:44.599Z,43.90
2019-02-06T10:53:10.877Z,39.30
2019-02-06T10:55:36.989Z,37.10
2019-02-06T10:58:03.198Z,36.53
2019-02-06T11:00:32.630Z,36.97
2019-02-06T11:02:58.760Z,41.50
2019-02-06T11:05:25.084Z,45.57
2019-02-06T11:07:51.836Z,38.50
2019-02-06T11:10:20.954Z,38.30
2019-02-06T11:12:47.285Z,43.27
2019-02-06T11:15:13.837Z,38.13
2019-02-06T11:17:39.940Z,46.27
2019-02-06T11:20:12.767Z,44.80
2019-02-06T11:22:38.979Z,43.43
2019-02-06T11:25:08.486Z,42.80
2019-02-06T11:27:34.703Z,42.37
2019-02-06T11:30:00.815Z,40.30
2019-02-06T11:32:26.944Z,37.63
2019-02-06T11:34:53.072Z,44.20
2019-02-06T11:37:19.186Z,43.00
2019-02-06T11:39:45.322Z,37.50
2019-02-06T11:42:11.587Z,39.80
2019-02-06T11:44:37.750Z,36.57
2019-02-06T11:47:04.084Z,36.70
2019-02-06T11:49:32.150Z,38.27
2019-02-06T11:51:58.710Z,45.07
2019-02-06T11:54:24.851Z,59.23
2019-02-06T11:56:50.968Z,44.77
2019-02-06T11:59:17.198Z,38.77
2019-02-06T12:01:43.523Z,35.10
2019-02-06T12:04:09.671Z,40.40
2019-02-06T12:06:35.806Z,40.73
2019-02-06T12:09:04.841Z,34.33
2019-02-06T12:11:30.972Z,38.13
2019-02-06T12:13:57.093Z,35.17
2019-02-06T12:16:23.540Z,35.93
2019-02-06T12:18:50.004Z,37.07
2019-02-06T12:21:18.059Z,33.70
2019-02-06T12:23:44.145Z,34.63
2019-02-06T12:26:10.298Z,37.90
2019-02-06T12:28:36.413Z,37.17
2019-02-06T12:31:03.052Z,38.43
2019-02-06T12:33:29.183Z,33.03
2019-02-06T12:35:55.305Z,33.37
2019-02-06T12:38:21.480Z,44.23
2019-02-06T12:40:48.273Z,34.50
2019-02-06T12:43:14.428Z,33.47
2019-02-06T12:45:40.638Z,37.17
2019-02-06T12:48:07.060Z,36.57
2019-02-06T12:50:33.200Z,37.03
2019-02-06T12:52:59.359Z,38.63
2019-02-06T12:55:28.452Z,32.50
2019-02-06T12:57:54.649Z,30.73
2019-02-06T13:00:29.208Z,35.57
2019-02-06T13:02:59.457Z,35.53
2019-02-06T13:05:23.892Z,30.57
2019-02-06T13:07:49.991Z,31.80
2019-02-06T13:10:17.950Z,29.57
2019-02-06T13:12:44.104Z,30.57
2019-02-06T13:15:12.794Z,32.67
2019-02-06T13:17:38.956Z,33.03
2019-02-06T13:20:10.430Z,31.20
2019-02-06T13:22:36.906Z,30.10
2019-02-06T13:25:05.608Z,32.23
2019-02-06T13:27:31.772Z,32.53
2019-02-06T13:29:57.926Z,33.07
2019-02-06T13:32:24.082Z,31.53
2019-02-06T13:34:50.239Z,35.47
2019-02-06T13:37:16.365Z,34.40
2019-02-06T13:39:42.793Z,31.17
2019-02-06T13:42:08.960Z,37.60
2019-02-06T13:44:35.133Z,32.30
2019-02-06T13:47:01.351Z,39.70
2019-02-06T13:49:27.566Z,33.50
2019-02-06T13:51:53.738Z,42.67
2019-02-06T13:54:19.830Z,34.47
2019-02-06T13:56:45.985Z,37.90
2019-02-06T13:59:12.441Z,38.10
2019-02-06T14:01:38.640Z,34.73
2019-02-06T14:04:04.775Z,38.30
2019-02-06T14:06:30.902Z,42.60
2019-02-06T14:08:57.025Z,55.10
2019-02-06T14:11:23.139Z,33.60
2019-02-06T14:13:49.401Z,31.60
2019-02-06T14:16:15.502Z,33.63
2019-02-06T14:18:41.673Z,32.07
2019-02-06T14:21:07.771Z,32.57
2019-02-06T14:23:37.507Z,48.93
2019-02-06T14:26:16.263Z,38.77
2019-02-06T14:28:48.731Z,39.13
2019-02-06T14:31:27.358Z,31.87
2019-02-06T14:34:05.880Z,39.87
2019-02-06T14:36:41.480Z,42.60
2019-02-06T14:39:19.912Z,38.23
2019-02-06T14:41:48.571Z,36.50
2019-02-06T14:44:40.871Z,44.57
2019-02-06T14:47:28.275Z,33.67
2019-02-06T14:50:10.056Z,34.37
2019-02-06T14:52:51.682Z,41.80
2019-02-06T14:55:38.271Z,33.27
2019-02-06T14:58:10.885Z,30.77
2019-02-06T15:00:59.863Z,36.50
2019-02-06T15:03:27.513Z,25.93
2019-02-06T15:05:57.285Z,29.93
2019-02-06T15:08:59.081Z,30.13
2019-02-06T15:11:32.265Z,30.97
2019-02-06T15:14:22.996Z,35.23
2019-02-06T15:17:18.744Z,33.83
2019-02-06T15:20:09.596Z,31.00
2019-02-06T15:26:34.554Z,28.23
2019-02-06T15:29:07.326Z,32.37
2019-02-06T15:31:54.100Z,41.07
2019-02-06T15:34:38.425Z,29.03
2019-02-06T15:37:10.845Z,30.57
2019-02-06T15:39:49.941Z,37.80
2019-02-06T15:42:43.353Z,29.33
2019-02-06T15:45:15.236Z,33.30
2019-02-06T15:47:44.955Z,40.37
2019-02-06T15:50:43.730Z,31.67
2019-02-06T15:53:16.181Z,31.50
2019-02-06T15:55:45.972Z,46.30
2019-02-06T15:58:38.788Z,27.07
2019-02-06T16:01:29.436Z,24.33
2019-02-06T16:04:19.443Z,31.93
2019-02-06T16:07:22.704Z,27.63
2019-02-06T16:10:01.754Z,26.63
2019-02-06T16:12:42.991Z,27.47
2019-02-06T16:15:30.248Z,27.20
2019-02-06T16:18:00.470Z,26.40
2019-02-06T16:20:59.222Z,32.33
2019-02-06T16:23:44.358Z,30.10
2019-02-06T16:26:29.182Z,26.93
2019-02-06T16:29:11.032Z,34.37
2019-02-06T16:31:49.410Z,44.40
2019-02-06T16:34:25.164Z,40.17
2019-02-06T16:37:00.829Z,30.20
2019-02-06T16:39:30.581Z,44.57
2019-02-06T16:42:03.261Z,32.73
2019-02-06T16:44:41.782Z,30.23
2019-02-06T16:47:23.978Z,55.77
2019-02-06T16:50:05.257Z,72.07
2019-02-06T16:52:40.979Z,63.70
2019-02-06T16:55:22.812Z,47.70
2019-02-06T16:58:16.453Z,44.27
2019-02-06T17:01:01.380Z,53.17
2019-02-06T17:03:51.968Z,62.23
2019-02-06T17:06:34.850Z,50.63
2019-02-06T17:09:25.643Z,44.13
2019-02-06T17:12:10.495Z,53.00
2019-02-06T17:15:13.894Z,44.07
2019-02-06T17:17:46.772Z,65.80
2019-02-06T17:20:22.493Z,63.50
2019-02-06T17:22:58.169Z,62.77
2019-02-06T17:25:50.982Z,74.77
2019-02-06T17:28:32.424Z,48.87
2019-02-06T17:31:05.003Z,60.53
2019-02-06T17:33:37.299Z,67.27
2019-02-06T17:36:18.993Z,50.73
2019-02-06T17:39:23.583Z,46.97
2019-02-06T17:41:44.186Z,59.23
2019-02-06T17:44:16.890Z,97.73
2019-02-06T17:46:52.567Z,231.50
2019-02-06T17:49:39.052Z,91.10
2019-02-06T17:52:28.643Z,61.47
2019-02-06T17:55:13.113Z,59.67
2019-02-06T17:57:39.423Z,52.70
2019-02-06T18:00:15.087Z,63.10
2019-02-06T18:02:41.191Z,52.87
2019-02-06T18:05:08.581Z,74.53
2019-02-06T18:07:34.715Z,109.10
2019-02-06T18:10:01.940Z,57.27
2019-02-06T18:12:29.324Z,65.10
2019-02-06T18:14:55.971Z,53.13
2019-02-06T18:17:22.124Z,58.00
2019-02-06T18:19:48.227Z,62.47
2019-02-06T18:22:14.351Z,63.97
2019-02-06T18:24:40.450Z,67.20
2019-02-06T18:27:06.617Z,66.60
2019-02-06T18:29:32.744Z,81.73
2019-02-06T18:31:58.841Z,74.00
2019-02-06T18:34:25.023Z,80.50
2019-02-06T18:36:51.143Z,66.10
2019-02-06T18:39:17.472Z,72.77
2019-02-06T18:41:43.670Z,77.17
2019-02-06T18:44:09.915Z,79.50
2019-02-06T18:46:36.145Z,95.57
2019-02-06T18:49:02.702Z,75.40
2019-02-06T18:51:28.917Z,71.27
2019-02-06T18:53:55.584Z,66.97
2019-02-06T18:56:21.700Z,66.27
2019-02-06T18:58:47.925Z,70.17
2019-02-06T19:01:14.056Z,61.73
2019-02-06T19:03:42.298Z,73.10
2019-02-06T19:06:08.782Z,59.60
2019-02-06T19:08:34.976Z,56.80
2019-02-06T19:11:01.082Z,58.83
2019-02-06T19:13:27.170Z,56.07
2019-02-06T19:15:56.577Z,61.87
2019-02-06T19:18:21.642Z,62.60
2019-02-06T19:20:47.800Z,68.97
2019-02-06T19:23:13.909Z,65.47
2019-02-06T19:25:40.052Z,54.77
2019-02-06T19:28:06.180Z,65.67
2019-02-06T19:30:40.576Z,74.97
2019-02-06T19:33:07.457Z,67.33
2019-02-06T19:35:33.620Z,54.37
2019-02-06T19:37:59.712Z,64.13
2019-02-06T19:40:25.852Z,70.70
2019-02-06T19:43:00.154Z,61.33
2019-02-06T19:45:20.012Z,60.20
2019-02-06T19:47:46.476Z,69.53
2019-02-06T19:50:22.100Z,61.10
2019-02-06T19:52:48.323Z,61.73
2019-02-06T19:55:15.529Z,65.47
2019-02-06T19:57:41.653Z,70.00
2019-02-06T20:00:11.469Z,68.33
2019-02-06T20:02:37.615Z,64.17
2019-02-06T20:05:07.324Z,78.97
2019-02-06T20:07:33.464Z,84.37
2019-02-06T20:09:59.961Z,70.43
2019-02-06T20:12:26.091Z,65.23
2019-02-06T20:14:52.188Z,71.83
2019-02-06T20:17:18.302Z,72.03
2019-02-06T20:19:44.425Z,83.23
2019-02-06T20:22:10.647Z,67.03
2019-02-06T20:24:36.775Z,75.60
2019-02-06T20:27:02.874Z,78.10
2019-02-06T20:29:28.910Z,80.73
2019-02-06T20:31:55.016Z,65.70
2019-02-06T20:34:21.547Z,70.17
2019-02-06T20:36:47.659Z,68.87
2019-02-06T20:39:13.669Z,66.70
2019-02-06T20:41:39.810Z,71.87
2019-02-06T20:44:05.928Z,63.63
2019-02-06T20:46:32.036Z,71.27
2019-02-06T20:48:58.145Z,71.00
2019-02-06T20:51:24.265Z,66.90
2019-02-06T20:53:50.397Z,65.27
2019-02-06T20:56:16.535Z,70.20
2019-02-06T20:58:42.724Z,88.03
2019-02-06T21:01:08.976Z,140.77
2019-02-06T21:03:35.065Z,124.17
2019-02-06T21:06:01.197Z,125.77
2019-02-06T21:08:27.675Z,82.33
2019-02-06T21:10:53.797Z,79.93
2019-02-06T21:13:19.914Z,70.57
2019-02-06T21:15:46.040Z,62.03
2019-02-06T21:18:12.140Z,65.97
2019-02-06T21:20:38.672Z,64.10
2019-02-06T21:23:04.791Z,55.20
2019-02-06T21:25:30.988Z,61.50
2019-02-06T21:27:57.132Z,54.93
2019-02-06T21:30:35.864Z,64.73
2019-02-06T21:33:02.007Z,58.60
2019-02-06T21:35:28.153Z,60.57
2019-02-06T21:37:54.711Z,58.37
2019-02-06T21:40:23.094Z,63.07
2019-02-06T21:42:49.211Z,61.40
2019-02-06T21:45:15.325Z,61.13
2019-02-06T21:47:41.454Z,54.73
2019-02-06T21:50:10.846Z,57.97
2019-02-06T21:52:36.942Z,48.67
2019-02-06T21:55:06.262Z,51.70
2019-02-06T21:57:32.490Z,53.63
2019-02-06T21:59:58.582Z,50.47
2019-02-06T22:02:24.703Z,47.60
2019-02-06T22:04:50.805Z,58.90
2019-02-06T22:07:16.955Z,59.70
2019-02-06T22:09:43.111Z,49.07
2019-02-06T22:12:09.247Z,48.00
2019-02-06T22:14:35.367Z,56.63
2019-02-06T22:17:01.805Z,46.87
2019-02-06T22:19:27.954Z,46.93
2019-02-06T22:21:54.046Z,47.73
2019-02-06T22:24:20.155Z,47.87
2019-02-06T22:26:46.302Z,45.43
2019-02-06T22:29:12.414Z,38.87
2019-02-06T22:31:38.442Z,46.33
2019-02-06T22:34:04.732Z,44.30
2019-02-06T22:36:31.304Z,43.43
2019-02-06T22:38:57.446Z,40.37
2019-02-06T22:41:23.566Z,36.47
2019-02-06T22:43:49.705Z,47.43
2019-02-06T22:46:15.863Z,39.43
2019-02-06T22:48:41.883Z,42.87
2019-02-06T22:51:07.992Z,45.63
2019-02-06T22:53:34.126Z,35.20
2019-02-06T22:56:00.429Z,37.43
2019-02-06T22:58:26.568Z,38.97
2019-02-06T23:01:05.139Z,39.13
2019-02-06T23:03:34.320Z,38.40
2019-02-06T23:06:00.532Z,35.40
2019-02-06T23:08:26.776Z,37.33
2019-02-06T23:10:52.877Z,35.63
2019-02-06T23:13:19.195Z,37.63
2019-02-06T23:15:45.331Z,31.23
2019-02-06T23:18:11.883Z,33.77
2019-02-06T23:20:38.112Z,35.57
2019-02-06T23:23:04.353Z,35.33
2019-02-06T23:25:30.479Z,34.63
2019-02-06T23:27:56.610Z,37.43
2019-02-06T23:30:23.117Z,47.33
2019-02-06T23:32:49.259Z,35.40
2019-02-06T23:35:15.379Z,32.87
2019-02-06T23:37:41.520Z,34.93
2019-02-06T23:40:10.933Z,37.53
2019-02-06T23:42:37.043Z,31.10
2019-02-06T23:45:06.870Z,35.40
2019-02-06T23:47:32.993Z,29.13
2019-02-06T23:49:59.402Z,31.03
2019-02-06T23:52:25.515Z,35.63
2019-02-06T23:54:51.547Z,34.70
2019-02-06T23:57:17.671Z,32.03
2019-02-06T23:59:43.755Z,30.50
